createdAt,value
2022-09-25T00:09:29.255Z,24.50
2022-09-25T00:20:29.154Z,20.40
2022-09-25T00:31:29.025Z,24.90
2022-09-25T00:42:28.886Z,24.10
2022-09-25T00:53:29.289Z,26.00
2022-09-25T01:04:28.650Z,23.90
2022-09-25T01:15:28.522Z,25.90
2022-09-25T01:26:28.410Z,27.50
2022-09-25T01:37:28.269Z,34.40
2022-09-25T01:48:28.143Z,31.60
2022-09-25T01:59:28.031Z,30.20
2022-09-25T02:10:27.896Z,24.40
2022-09-25T02:21:27.803Z,27.30
2022-09-25T02:32:27.652Z,22.70
2022-09-25T02:43:27.522Z,17.50
2022-09-25T02:54:27.403Z,23.10
2022-09-25T03:05:27.291Z,15.30
2022-09-25T03:16:27.233Z,16.10
2022-09-25T03:27:27.052Z,17.50
2022-09-25T03:38:26.913Z,16.10
2022-09-25T03:49:26.800Z,10.80
2022-09-25T04:00:26.659Z,10.90
2022-09-25T04:11:26.544Z,14.00
2022-09-25T04:22:26.409Z,10.90
2022-09-25T04:33:26.286Z,10.80
2022-09-25T04:44:26.156Z,19.10
2022-09-25T04:55:26.060Z,17.10
2022-09-25T05:06:25.907Z,9.40
2022-09-25T05:17:25.784Z,7.70
2022-09-25T05:28:25.661Z,8.20
2022-09-25T05:39:25.551Z,8.10
2022-09-25T05:50:25.427Z,9.10
2022-09-25T06:01:25.390Z,9.30
2022-09-25T06:12:25.266Z,8.40
2022-09-25T06:23:25.035Z,7.90
2022-09-25T06:34:24.910Z,8.70
2022-09-25T06:45:24.785Z,12.70
2022-09-25T06:56:24.693Z,9.10
2022-09-25T07:07:24.542Z,13.60
2022-09-25T07:18:24.450Z,17.20
2022-09-25T07:29:24.322Z,20.50
2022-09-25T07:40:24.248Z,15.70
2022-09-25T07:51:24.045Z,14.50
2022-09-25T08:02:24.138Z,11.30
2022-09-25T08:13:23.799Z,13.60
2022-09-25T08:24:23.703Z,13.20
2022-09-25T08:35:24.561Z,10.50
2022-09-25T08:46:23.559Z,9.40
2022-09-25T08:57:23.305Z,8.60
2022-09-25T09:08:24.185Z,10.70
2022-09-25T09:19:23.043Z,9.10
2022-09-25T09:30:22.915Z,11.80
2022-09-25T09:41:22.787Z,16.80
2022-09-25T09:52:22.664Z,8.80
2022-09-25T10:03:22.750Z,8.70
2022-09-25T10:14:22.435Z,12.80
2022-09-25T10:25:22.274Z,12.90
2022-09-25T10:36:22.150Z,15.40
2022-09-25T10:47:22.017Z,10.10
2022-09-25T10:58:21.910Z,11.30
2022-09-25T11:09:21.776Z,5.90
2022-09-25T11:20:21.655Z,10.90
2022-09-25T11:31:21.635Z,6.90
2022-09-25T11:42:21.400Z,5.10
2022-09-25T11:53:21.281Z,7.90
2022-09-25T12:04:21.210Z,6.40
2022-09-25T12:15:21.067Z,14.30
2022-09-25T12:26:20.893Z,9.90
2022-09-25T12:37:25.399Z,15.20
2022-09-25T12:48:20.641Z,17.30
2022-09-25T12:59:20.522Z,13.60
2022-09-25T13:10:20.465Z,11.00
2022-09-25T13:21:20.413Z,15.20
2022-09-25T13:32:20.145Z,16.20
2022-09-25T13:43:20.024Z,15.60
2022-09-25T13:54:19.890Z,15.80
2022-09-25T14:05:19.777Z,10.50
2022-09-25T14:16:19.693Z,7.70
2022-09-25T14:27:19.530Z,7.20
2022-09-25T14:38:19.392Z,7.90
2022-09-25T14:49:19.265Z,2.50
2022-09-25T15:00:19.141Z,5.80
2022-09-25T15:11:19.026Z,3.40
2022-09-25T15:22:18.896Z,5.30
2022-09-25T15:33:18.791Z,4.60
2022-09-25T15:44:18.658Z,8.00
2022-09-25T15:55:18.508Z,7.10
2022-09-25T16:06:18.385Z,3.80
2022-09-25T16:17:18.319Z,4.90
2022-09-25T16:28:18.128Z,3.50
2022-09-25T16:39:18.026Z,3.40
2022-09-25T16:50:17.892Z,3.20
2022-09-25T17:01:17.813Z,3.10
2022-09-25T17:12:17.643Z,9.60
2022-09-25T17:23:17.535Z,3.40
2022-09-25T17:34:17.393Z,8.40
2022-09-25T17:45:17.272Z,7.70
2022-09-25T17:56:17.141Z,4.00
2022-09-25T18:07:17.118Z,3.40
2022-09-25T18:18:16.957Z,3.60
2022-09-25T18:29:16.789Z,4.80
2022-09-25T18:40:17.733Z,7.30
2022-09-25T18:51:16.537Z,6.00
2022-09-25T19:02:16.518Z,3.70
2022-09-25T19:13:16.285Z,3.80
2022-09-25T19:24:16.174Z,6.40
2022-09-25T19:35:16.035Z,4.40
2022-09-25T19:46:16.061Z,3.20
2022-09-25T19:57:15.790Z,4.90
2022-09-25T20:08:15.733Z,4.60
2022-09-25T20:19:15.543Z,7.40
2022-09-25T20:30:15.529Z,4.70
2022-09-25T20:41:15.300Z,3.70
2022-09-25T20:52:15.174Z,6.40
